sensor_id;sensor_type;location;lat;lon;timestamp;P1;durP1;ratioP1;P2;durP2;ratioP2
25917;SDS011;13899;51.174;4.456;2022-08-19T00:01:21;30.13;;;27.05;;
25917;SDS011;13899;51.174;4.456;2022-08-19T00:03:47;28.10;;;25.13;;
25917;SDS011;13899;51.174;4.456;2022-08-19T00:06:13;32.75;;;29.48;;
25917;SDS011;13899;51.174;4.456;2022-08-19T00:08:40;28.88;;;26.10;;
25917;SDS011;13899;51.174;4.456;2022-08-19T00:11:06;33.60;;;28.43;;
25917;SDS011;13899;51.174;4.456;2022-08-19T00:13:32;32.28;;;28.75;;
25917;SDS011;13899;51.174;4.456;2022-08-19T00:15:58;33.38;;;29.75;;
25917;SDS011;13899;51.174;4.456;2022-08-19T00:18:24;30.77;;;27.47;;
25917;SDS011;13899;51.174;4.456;2022-08-19T00:20:50;29.30;;;26.30;;
25917;SDS011;13899;51.174;4.456;2022-08-19T00:23:16;33.80;;;30.27;;
25917;SDS011;13899;51.174;4.456;2022-08-19T00:25:42;35.67;;;30.70;;
25917;SDS011;13899;51.174;4.456;2022-08-19T00:28:07;39.07;;;32.17;;
25917;SDS011;13899;51.174;4.456;2022-08-19T00:30:33;33.20;;;29.60;;
25917;SDS011;13899;51.174;4.456;2022-08-19T00:32:59;33.70;;;29.97;;
25917;SDS011;13899;51.174;4.456;2022-08-19T00:35:25;35.20;;;29.40;;
25917;SDS011;13899;51.174;4.456;2022-08-19T00:37:52;38.08;;;32.38;;
25917;SDS011;13899;51.174;4.456;2022-08-19T00:40:18;45.50;;;34.05;;
25917;SDS011;13899;51.174;4.456;2022-08-19T00:42:45;43.53;;;33.80;;
25917;SDS011;13899;51.174;4.456;2022-08-19T00:45:12;42.30;;;33.37;;
25917;SDS011;13899;51.174;4.456;2022-08-19T00:47:43;46.85;;;35.10;;
25917;SDS011;13899;51.174;4.456;2022-08-19T00:50:10;39.55;;;33.25;;
25917;SDS011;13899;51.174;4.456;2022-08-19T00:52:42;50.25;;;35.38;;
25917;SDS011;13899;51.174;4.456;2022-08-19T00:55:19;50.53;;;38.38;;
25917;SDS011;13899;51.174;4.456;2022-08-19T00:58:06;50.42;;;37.17;;
25917;SDS011;13899;51.174;4.456;2022-08-19T01:00:38;52.58;;;38.75;;
25917;SDS011;13899;51.174;4.456;2022-08-19T01:03:08;51.67;;;36.57;;
25917;SDS011;13899;51.174;4.456;2022-08-19T01:05:37;46.38;;;36.83;;
25917;SDS011;13899;51.174;4.456;2022-08-19T01:08:06;46.53;;;35.50;;
25917;SDS011;13899;51.174;4.456;2022-08-19T01:10:40;43.55;;;35.90;;
25917;SDS011;13899;51.174;4.456;2022-08-19T01:13:11;40.78;;;34.50;;
25917;SDS011;13899;51.174;4.456;2022-08-19T01:15:43;42.30;;;34.63;;
25917;SDS011;13899;51.174;4.456;2022-08-19T01:18:14;45.90;;;35.20;;
25917;SDS011;13899;51.174;4.456;2022-08-19T01:20:42;47.17;;;35.83;;
25917;SDS011;13899;51.174;4.456;2022-08-19T01:23:09;45.20;;;35.05;;
25917;SDS011;13899;51.174;4.456;2022-08-19T01:25:38;41.17;;;33.73;;
25917;SDS011;13899;51.174;4.456;2022-08-19T01:28:13;46.03;;;36.28;;
25917;SDS011;13899;51.174;4.456;2022-08-19T01:30:45;46.30;;;36.08;;
25917;SDS011;13899;51.174;4.456;2022-08-19T01:33:11;43.47;;;35.70;;
25917;SDS011;13899;51.174;4.456;2022-08-19T01:35:37;43.83;;;34.00;;
25917;SDS011;13899;51.174;4.456;2022-08-19T01:38:05;41.73;;;34.33;;
25917;SDS011;13899;51.174;4.456;2022-08-19T01:40:33;37.28;;;31.85;;
25917;SDS011;13899;51.174;4.456;2022-08-19T01:43:01;42.08;;;31.55;;
25917;SDS011;13899;51.174;4.456;2022-08-19T01:47:56;46.00;;;32.90;;
25917;SDS011;13899;51.174;4.456;2022-08-19T01:50:23;45.78;;;34.42;;
25917;SDS011;13899;51.174;4.456;2022-08-19T01:52:49;38.42;;;31.70;;
25917;SDS011;13899;51.174;4.456;2022-08-19T01:55:16;49.20;;;35.33;;
25917;SDS011;13899;51.174;4.456;2022-08-19T01:57:47;50.08;;;34.85;;
25917;SDS011;13899;51.174;4.456;2022-08-19T02:00:17;42.70;;;33.35;;
25917;SDS011;13899;51.174;4.456;2022-08-19T02:02:45;44.85;;;34.10;;
25917;SDS011;13899;51.174;4.456;2022-08-19T02:05:11;44.33;;;34.30;;
25917;SDS011;13899;51.174;4.456;2022-08-19T02:07:38;48.08;;;34.33;;
25917;SDS011;13899;51.174;4.456;2022-08-19T02:10:08;43.15;;;34.22;;
25917;SDS011;13899;51.174;4.456;2022-08-19T02:12:37;44.38;;;33.08;;
25917;SDS011;13899;51.174;4.456;2022-08-19T02:15:03;41.25;;;33.25;;
25917;SDS011;13899;51.174;4.456;2022-08-19T02:17:29;47.38;;;36.65;;
25917;SDS011;13899;51.174;4.456;2022-08-19T02:19:56;46.13;;;33.87;;
25917;SDS011;13899;51.174;4.456;2022-08-19T02:22:24;44.45;;;34.45;;
25917;SDS011;13899;51.174;4.456;2022-08-19T02:24:51;43.97;;;32.42;;
25917;SDS011;13899;51.174;4.456;2022-08-19T02:27:25;44.88;;;32.60;;
25917;SDS011;13899;51.174;4.456;2022-08-19T02:29:51;50.92;;;36.63;;
25917;SDS011;13899;51.174;4.456;2022-08-19T02:32:17;45.97;;;34.20;;
25917;SDS011;13899;51.174;4.456;2022-08-19T02:34:45;50.67;;;36.00;;
25917;SDS011;13899;51.174;4.456;2022-08-19T02:37:12;47.22;;;35.60;;
25917;SDS011;13899;51.174;4.456;2022-08-19T02:39:57;47.78;;;35.28;;
25917;SDS011;13899;51.174;4.456;2022-08-19T02:42:23;47.80;;;35.17;;
25917;SDS011;13899;51.174;4.456;2022-08-19T02:44:48;53.87;;;37.13;;
25917;SDS011;13899;51.174;4.456;2022-08-19T02:47:14;54.10;;;37.80;;
25917;SDS011;13899;51.174;4.456;2022-08-19T02:49:41;52.70;;;37.80;;
25917;SDS011;13899;51.174;4.456;2022-08-19T02:52:06;48.30;;;36.40;;
25917;SDS011;13899;51.174;4.456;2022-08-19T02:54:32;49.23;;;34.93;;
25917;SDS011;13899;51.174;4.456;2022-08-19T02:56:58;52.00;;;36.53;;
25917;SDS011;13899;51.174;4.456;2022-08-19T02:59:25;51.47;;;35.35;;
25917;SDS011;13899;51.174;4.456;2022-08-19T03:01:51;50.95;;;35.72;;
25917;SDS011;13899;51.174;4.456;2022-08-19T03:04:17;49.70;;;36.47;;
25917;SDS011;13899;51.174;4.456;2022-08-19T03:11:37;49.47;;;33.65;;
25917;SDS011;13899;51.174;4.456;2022-08-19T03:14:03;53.28;;;36.03;;
25917;SDS011;13899;51.174;4.456;2022-08-19T03:16:31;47.08;;;33.08;;
25917;SDS011;13899;51.174;4.456;2022-08-19T03:19:00;47.17;;;33.25;;
25917;SDS011;13899;51.174;4.456;2022-08-19T03:21:28;51.88;;;35.13;;
25917;SDS011;13899;51.174;4.456;2022-08-19T03:23:59;48.78;;;34.10;;
25917;SDS011;13899;51.174;4.456;2022-08-19T03:26:28;53.65;;;34.95;;
25917;SDS011;13899;51.174;4.456;2022-08-19T03:28:56;55.88;;;35.30;;
25917;SDS011;13899;51.174;4.456;2022-08-19T03:31:23;46.10;;;33.60;;
25917;SDS011;13899;51.174;4.456;2022-08-19T03:33:56;53.38;;;33.28;;
25917;SDS011;13899;51.174;4.456;2022-08-19T03:36:24;43.78;;;30.20;;
25917;SDS011;13899;51.174;4.456;2022-08-19T03:38:53;41.40;;;30.27;;
25917;SDS011;13899;51.174;4.456;2022-08-19T03:41:22;44.33;;;28.95;;
25917;SDS011;13899;51.174;4.456;2022-08-19T03:43:51;42.30;;;29.02;;
25917;SDS011;13899;51.174;4.456;2022-08-19T03:48:46;39.30;;;26.95;;
25917;SDS011;13899;51.174;4.456;2022-08-19T03:51:19;43.92;;;29.42;;
25917;SDS011;13899;51.174;4.456;2022-08-19T03:53:46;45.22;;;27.58;;
25917;SDS011;13899;51.174;4.456;2022-08-19T03:56:15;35.40;;;27.10;;
25917;SDS011;13899;51.174;4.456;2022-08-19T03:58:42;40.55;;;28.15;;
25917;SDS011;13899;51.174;4.456;2022-08-19T04:01:16;42.67;;;28.13;;
25917;SDS011;13899;51.174;4.456;2022-08-19T04:03:44;43.53;;;27.13;;
25917;SDS011;13899;51.174;4.456;2022-08-19T04:06:16;42.47;;;28.75;;
25917;SDS011;13899;51.174;4.456;2022-08-19T04:08:47;50.60;;;30.20;;
25917;SDS011;13899;51.174;4.456;2022-08-19T04:11:16;42.90;;;28.13;;
25917;SDS011;13899;51.174;4.456;2022-08-19T04:13:45;40.60;;;28.10;;
25917;SDS011;13899;51.174;4.456;2022-08-19T04:16:11;45.58;;;26.30;;
25917;SDS011;13899;51.174;4.456;2022-08-19T04:18:38;43.53;;;27.13;;
25917;SDS011;13899;51.174;4.456;2022-08-19T04:21:06;46.53;;;29.38;;
25917;SDS011;13899;51.174;4.456;2022-08-19T04:23:33;40.85;;;27.20;;
25917;SDS011;13899;51.174;4.456;2022-08-19T04:26:03;40.28;;;27.08;;
25917;SDS011;13899;51.174;4.456;2022-08-19T04:28:29;44.55;;;27.83;;
25917;SDS011;13899;51.174;4.456;2022-08-19T04:30:55;51.17;;;29.10;;
25917;SDS011;13899;51.174;4.456;2022-08-19T04:33:24;43.42;;;27.88;;
25917;SDS011;13899;51.174;4.456;2022-08-19T04:38:17;42.72;;;27.48;;
25917;SDS011;13899;51.174;4.456;2022-08-19T04:40:46;35.75;;;25.83;;
25917;SDS011;13899;51.174;4.456;2022-08-19T04:43:33;49.15;;;25.23;;
25917;SDS011;13899;51.174;4.456;2022-08-19T04:46:04;36.33;;;24.55;;
25917;SDS011;13899;51.174;4.456;2022-08-19T04:48:31;38.33;;;24.38;;
25917;SDS011;13899;51.174;4.456;2022-08-19T04:50:57;36.78;;;24.88;;
25917;SDS011;13899;51.174;4.456;2022-08-19T04:55:52;41.58;;;23.45;;
25917;SDS011;13899;51.174;4.456;2022-08-19T04:58:19;30.83;;;22.17;;
25917;SDS011;13899;51.174;4.456;2022-08-19T05:00:45;28.05;;;21.33;;
25917;SDS011;13899;51.174;4.456;2022-08-19T05:03:12;30.70;;;22.45;;
25917;SDS011;13899;51.174;4.456;2022-08-19T05:05:39;24.73;;;20.92;;
25917;SDS011;13899;51.174;4.456;2022-08-19T05:08:06;35.08;;;21.50;;
25917;SDS011;13899;51.174;4.456;2022-08-19T05:10:34;29.75;;;21.35;;
25917;SDS011;13899;51.174;4.456;2022-08-19T05:13:01;24.60;;;20.05;;
25917;SDS011;13899;51.174;4.456;2022-08-19T05:15:27;32.10;;;21.87;;
25917;SDS011;13899;51.174;4.456;2022-08-19T05:17:53;27.95;;;21.17;;
25917;SDS011;13899;51.174;4.456;2022-08-19T05:20:38;25.00;;;19.75;;
25917;SDS011;13899;51.174;4.456;2022-08-19T05:23:23;35.13;;;22.70;;
25917;SDS011;13899;51.174;4.456;2022-08-19T05:25:50;33.03;;;19.95;;
25917;SDS011;13899;51.174;4.456;2022-08-19T05:28:17;32.72;;;22.42;;
25917;SDS011;13899;51.174;4.456;2022-08-19T05:30:45;29.85;;;21.13;;
25917;SDS011;13899;51.174;4.456;2022-08-19T05:33:11;35.95;;;20.75;;
25917;SDS011;13899;51.174;4.456;2022-08-19T05:35:38;29.40;;;20.65;;
25917;SDS011;13899;51.174;4.456;2022-08-19T05:38:04;29.52;;;19.98;;
25917;SDS011;13899;51.174;4.456;2022-08-19T05:40:35;31.15;;;21.38;;
25917;SDS011;13899;51.174;4.456;2022-08-19T05:43:04;33.40;;;21.52;;
25917;SDS011;13899;51.174;4.456;2022-08-19T05:45:45;23.25;;;18.67;;
25917;SDS011;13899;51.174;4.456;2022-08-19T05:48:27;27.67;;;20.35;;
25917;SDS011;13899;51.174;4.456;2022-08-19T05:50:53;23.88;;;19.35;;
25917;SDS011;13899;51.174;4.456;2022-08-19T05:53:19;25.90;;;18.15;;
25917;SDS011;13899;51.174;4.456;2022-08-19T05:55:45;21.30;;;19.03;;
25917;SDS011;13899;51.174;4.456;2022-08-19T05:58:10;25.55;;;18.05;;
25917;SDS011;13899;51.174;4.456;2022-08-19T06:00:36;23.30;;;17.55;;
25917;SDS011;13899;51.174;4.456;2022-08-19T06:03:03;25.27;;;18.27;;
25917;SDS011;13899;51.174;4.456;2022-08-19T06:05:30;20.70;;;17.02;;
25917;SDS011;13899;51.174;4.456;2022-08-19T06:07:57;23.50;;;18.35;;
25917;SDS011;13899;51.174;4.456;2022-08-19T06:10:24;25.92;;;17.35;;
25917;SDS011;13899;51.174;4.456;2022-08-19T06:12:57;20.88;;;17.00;;
25917;SDS011;13899;51.174;4.456;2022-08-19T06:15:22;21.40;;;17.40;;
25917;SDS011;13899;51.174;4.456;2022-08-19T06:17:57;18.77;;;15.32;;
25917;SDS011;13899;51.174;4.456;2022-08-19T06:20:47;22.40;;;15.25;;
25917;SDS011;13899;51.174;4.456;2022-08-19T06:23:15;23.30;;;14.85;;
25917;SDS011;13899;51.174;4.456;2022-08-19T06:25:46;20.08;;;15.00;;
25917;SDS011;13899;51.174;4.456;2022-08-19T06:28:21;20.67;;;15.18;;
25917;SDS011;13899;51.174;4.456;2022-08-19T06:31:22;17.10;;;14.68;;
25917;SDS011;13899;51.174;4.456;2022-08-19T06:33:59;15.45;;;13.68;;
25917;SDS011;13899;51.174;4.456;2022-08-19T06:36:30;19.98;;;14.25;;
25917;SDS011;13899;51.174;4.456;2022-08-19T06:39:03;17.10;;;13.23;;
25917;SDS011;13899;51.174;4.456;2022-08-19T06:41:34;18.90;;;14.38;;
25917;SDS011;13899;51.174;4.456;2022-08-19T06:44:05;26.23;;;15.63;;
25917;SDS011;13899;51.174;4.456;2022-08-19T06:46:37;21.70;;;15.48;;
25917;SDS011;13899;51.174;4.456;2022-08-19T06:49:09;21.35;;;15.18;;
25917;SDS011;13899;51.174;4.456;2022-08-19T06:51:40;23.88;;;15.40;;
25917;SDS011;13899;51.174;4.456;2022-08-19T06:54:30;16.92;;;13.10;;
25917;SDS011;13899;51.174;4.456;2022-08-19T06:57:00;18.65;;;13.45;;
25917;SDS011;13899;51.174;4.456;2022-08-19T06:59:51;21.15;;;13.93;;
25917;SDS011;13899;51.174;4.456;2022-08-19T07:02:23;19.73;;;14.33;;
25917;SDS011;13899;51.174;4.456;2022-08-19T07:27:01;22.65;;;13.98;;
25917;SDS011;13899;51.174;4.456;2022-08-19T07:33:45;16.58;;;14.20;;
25917;SDS011;13899;51.174;4.456;2022-08-19T07:43:40;20.38;;;13.35;;
25917;SDS011;13899;51.174;4.456;2022-08-19T07:46:42;21.70;;;14.00;;
25917;SDS011;13899;51.174;4.456;2022-08-19T07:49:25;18.05;;;13.13;;
25917;SDS011;13899;51.174;4.456;2022-08-19T07:52:17;17.42;;;12.63;;
25917;SDS011;13899;51.174;4.456;2022-08-19T07:54:44;14.50;;;12.32;;
25917;SDS011;13899;51.174;4.456;2022-08-19T07:59:49;15.18;;;11.98;;
25917;SDS011;13899;51.174;4.456;2022-08-19T08:02:15;13.03;;;11.83;;
25917;SDS011;13899;51.174;4.456;2022-08-19T08:04:40;14.07;;;11.80;;
25917;SDS011;13899;51.174;4.456;2022-08-19T08:07:34;12.00;;;10.73;;
25917;SDS011;13899;51.174;4.456;2022-08-19T08:10:21;13.02;;;11.73;;
25917;SDS011;13899;51.174;4.456;2022-08-19T08:17:04;11.57;;;10.48;;
25917;SDS011;13899;51.174;4.456;2022-08-19T08:43:49;10.40;;;9.40;;
25917;SDS011;13899;51.174;4.456;2022-08-19T08:46:35;9.38;;;8.52;;
25917;SDS011;13899;51.174;4.456;2022-08-19T08:55:10;8.95;;;7.97;;
25917;SDS011;13899;51.174;4.456;2022-08-19T08:58:22;9.82;;;8.82;;
25917;SDS011;13899;51.174;4.456;2022-08-19T09:23:57;12.27;;;9.63;;
25917;SDS011;13899;51.174;4.456;2022-08-19T09:26:35;9.70;;;8.77;;
25917;SDS011;13899;51.174;4.456;2022-08-19T09:29:04;11.20;;;8.35;;
25917;SDS011;13899;51.174;4.456;2022-08-19T09:31:34;10.70;;;7.75;;
25917;SDS011;13899;51.174;4.456;2022-08-19T09:34:12;9.02;;;8.13;;
25917;SDS011;13899;51.174;4.456;2022-08-19T09:40:00;9.75;;;8.75;;
25917;SDS011;13899;51.174;4.456;2022-08-19T09:42:38;8.95;;;8.13;;
25917;SDS011;13899;51.174;4.456;2022-08-19T09:45:05;9.70;;;8.77;;
25917;SDS011;13899;51.174;4.456;2022-08-19T09:47:39;15.35;;;10.55;;
25917;SDS011;13899;51.174;4.456;2022-08-19T09:50:26;12.90;;;11.27;;
25917;SDS011;13899;51.174;4.456;2022-08-19T09:52:58;13.55;;;11.25;;
25917;SDS011;13899;51.174;4.456;2022-08-19T09:55:25;13.97;;;9.97;;
25917;SDS011;13899;51.174;4.456;2022-08-19T09:58:09;12.02;;;10.73;;
25917;SDS011;13899;51.174;4.456;2022-08-19T10:05:06;12.27;;;10.13;;
25917;SDS011;13899;51.174;4.456;2022-08-19T10:07:57;12.07;;;9.65;;
25917;SDS011;13899;51.174;4.456;2022-08-19T10:10:46;11.82;;;9.98;;
25917;SDS011;13899;51.174;4.456;2022-08-19T10:13:33;10.75;;;9.68;;
25917;SDS011;13899;51.174;4.456;2022-08-19T10:18:35;12.93;;;10.82;;
25917;SDS011;13899;51.174;4.456;2022-08-19T10:21:04;15.25;;;10.48;;
25917;SDS011;13899;51.174;4.456;2022-08-19T10:23:41;12.98;;;9.98;;
25917;SDS011;13899;51.174;4.456;2022-08-19T10:26:11;13.43;;;10.15;;
25917;SDS011;13899;51.174;4.456;2022-08-19T10:28:41;12.20;;;10.38;;
25917;SDS011;13899;51.174;4.456;2022-08-19T10:31:10;10.88;;;9.70;;
25917;SDS011;13899;51.174;4.456;2022-08-19T10:33:51;13.23;;;10.10;;
25917;SDS011;13899;51.174;4.456;2022-08-19T10:36:24;12.20;;;9.10;;
25917;SDS011;13899;51.174;4.456;2022-08-19T10:38:59;11.88;;;9.27;;
25917;SDS011;13899;51.174;4.456;2022-08-19T10:41:29;11.55;;;9.20;;
25917;SDS011;13899;51.174;4.456;2022-08-19T10:44:02;9.80;;;8.68;;
25917;SDS011;13899;51.174;4.456;2022-08-19T10:46:38;11.77;;;9.23;;
25917;SDS011;13899;51.174;4.456;2022-08-19T10:49:19;10.45;;;9.38;;
25917;SDS011;13899;51.174;4.456;2022-08-19T10:51:55;11.18;;;9.98;;
25917;SDS011;13899;51.174;4.456;2022-08-19T10:54:41;11.43;;;9.77;;
25917;SDS011;13899;51.174;4.456;2022-08-19T10:57:47;11.82;;;9.55;;
25917;SDS011;13899;51.174;4.456;2022-08-19T11:00:24;10.48;;;9.38;;
25917;SDS011;13899;51.174;4.456;2022-08-19T11:05:46;13.00;;;9.57;;
25917;SDS011;13899;51.174;4.456;2022-08-19T11:08:33;12.20;;;10.25;;
25917;SDS011;13899;51.174;4.456;2022-08-19T11:11:25;10.75;;;9.65;;
25917;SDS011;13899;51.174;4.456;2022-08-19T11:13:56;11.07;;;9.70;;
25917;SDS011;13899;51.174;4.456;2022-08-19T11:19:32;8.98;;;8.02;;
25917;SDS011;13899;51.174;4.456;2022-08-19T11:22:21;9.32;;;8.43;;
25917;SDS011;13899;51.174;4.456;2022-08-19T11:25:23;10.32;;;9.35;;
25917;SDS011;13899;51.174;4.456;2022-08-19T11:27:51;9.10;;;8.30;;
25917;SDS011;13899;51.174;4.456;2022-08-19T11:30:45;8.48;;;7.68;;
25917;SDS011;13899;51.174;4.456;2022-08-19T11:34:02;13.70;;;8.07;;
25917;SDS011;13899;51.174;4.456;2022-08-19T11:37:13;8.57;;;7.78;;
25917;SDS011;13899;51.174;4.456;2022-08-19T11:39:49;10.05;;;8.70;;
25917;SDS011;13899;51.174;4.456;2022-08-19T11:42:15;7.72;;;6.95;;
25917;SDS011;13899;51.174;4.456;2022-08-19T11:45:02;7.05;;;6.35;;
25917;SDS011;13899;51.174;4.456;2022-08-19T11:47:30;7.00;;;6.35;;
25917;SDS011;13899;51.174;4.456;2022-08-19T11:50:02;6.28;;;5.78;;
25917;SDS011;13899;51.174;4.456;2022-08-19T11:59:21;7.10;;;6.55;;
25917;SDS011;13899;51.174;4.456;2022-08-19T12:01:49;7.13;;;6.47;;
25917;SDS011;13899;51.174;4.456;2022-08-19T12:04:17;6.55;;;5.95;;
25917;SDS011;13899;51.174;4.456;2022-08-19T12:06:44;7.70;;;5.70;;
25917;SDS011;13899;51.174;4.456;2022-08-19T12:09:31;5.70;;;4.97;;
25917;SDS011;13899;51.174;4.456;2022-08-19T12:12:20;7.07;;;4.93;;
25917;SDS011;13899;51.174;4.456;2022-08-19T12:15:40;6.40;;;5.80;;
25917;SDS011;13899;51.174;4.456;2022-08-19T12:18:19;7.97;;;4.80;;
25917;SDS011;13899;51.174;4.456;2022-08-19T12:20:45;5.43;;;3.80;;
25917;SDS011;13899;51.174;4.456;2022-08-19T12:23:13;3.78;;;3.10;;
25917;SDS011;13899;51.174;4.456;2022-08-19T12:25:44;3.10;;;2.67;;
25917;SDS011;13899;51.174;4.456;2022-08-19T12:28:16;2.90;;;2.17;;
25917;SDS011;13899;51.174;4.456;2022-08-19T12:33:08;2.45;;;2.22;;
25917;SDS011;13899;51.174;4.456;2022-08-19T12:35:33;3.73;;;2.27;;
25917;SDS011;13899;51.174;4.456;2022-08-19T12:38:00;2.50;;;2.30;;
25917;SDS011;13899;51.174;4.456;2022-08-19T12:40:27;2.40;;;2.20;;
25917;SDS011;13899;51.174;4.456;2022-08-19T12:42:53;2.80;;;2.57;;
25917;SDS011;13899;51.174;4.456;2022-08-19T12:45:19;3.90;;;2.40;;
25917;SDS011;13899;51.174;4.456;2022-08-19T12:47:47;2.70;;;2.50;;
25917;SDS011;13899;51.174;4.456;2022-08-19T12:52:46;2.72;;;2.20;;
25917;SDS011;13899;51.174;4.456;2022-08-19T12:55:14;3.67;;;2.33;;
25917;SDS011;13899;51.174;4.456;2022-08-19T12:58:06;3.20;;;2.47;;
25917;SDS011;13899;51.174;4.456;2022-08-19T13:00:33;4.00;;;2.20;;
25917;SDS011;13899;51.174;4.456;2022-08-19T13:03:00;3.03;;;1.90;;
25917;SDS011;13899;51.174;4.456;2022-08-19T13:05:28;2.55;;;2.00;;
25917;SDS011;13899;51.174;4.456;2022-08-19T13:07:56;3.78;;;2.05;;
25917;SDS011;13899;51.174;4.456;2022-08-19T13:10:34;3.15;;;2.33;;
25917;SDS011;13899;51.174;4.456;2022-08-19T13:13:04;2.95;;;2.15;;
25917;SDS011;13899;51.174;4.456;2022-08-19T13:15:33;4.38;;;2.13;;
25917;SDS011;13899;51.174;4.456;2022-08-19T13:17:59;3.05;;;2.75;;
25917;SDS011;13899;51.174;4.456;2022-08-19T13:20:28;3.17;;;2.20;;
25917;SDS011;13899;51.174;4.456;2022-08-19T13:22:56;2.30;;;1.90;;
25917;SDS011;13899;51.174;4.456;2022-08-19T13:25:27;4.10;;;1.58;;
25917;SDS011;13899;51.174;4.456;2022-08-19T13:28:15;3.42;;;1.90;;
25917;SDS011;13899;51.174;4.456;2022-08-19T13:30:41;2.20;;;1.70;;
25917;SDS011;13899;51.174;4.456;2022-08-19T13:33:36;2.92;;;1.90;;
25917;SDS011;13899;51.174;4.456;2022-08-19T13:36:44;2.20;;;1.75;;
25917;SDS011;13899;51.174;4.456;2022-08-19T13:39:17;2.63;;;2.17;;
25917;SDS011;13899;51.174;4.456;2022-08-19T13:42:01;3.35;;;3.15;;
25917;SDS011;13899;51.174;4.456;2022-08-19T13:45:10;5.20;;;4.97;;
25917;SDS011;13899;51.174;4.456;2022-08-19T13:47:52;1.85;;;1.20;;
25917;SDS011;13899;51.174;4.456;2022-08-19T13:50:23;2.78;;;1.50;;
25917;SDS011;13899;51.174;4.456;2022-08-19T13:52:52;2.70;;;2.25;;
25917;SDS011;13899;51.174;4.456;2022-08-19T13:55:18;6.10;;;5.65;;
25917;SDS011;13899;51.174;4.456;2022-08-19T13:57:57;4.55;;;4.22;;
25917;SDS011;13899;51.174;4.456;2022-08-19T14:00:43;2.28;;;2.00;;
25917;SDS011;13899;51.174;4.456;2022-08-19T14:03:10;4.47;;;4.15;;
25917;SDS011;13899;51.174;4.456;2022-08-19T14:05:36;4.82;;;3.88;;
25917;SDS011;13899;51.174;4.456;2022-08-19T14:08:02;9.73;;;9.02;;
25917;SDS011;13899;51.174;4.456;2022-08-19T14:10:28;3.47;;;3.17;;
25917;SDS011;13899;51.174;4.456;2022-08-19T14:12:56;17.08;;;16.30;;
25917;SDS011;13899;51.174;4.456;2022-08-19T14:15:28;5.30;;;4.82;;
25917;SDS011;13899;51.174;4.456;2022-08-19T14:17:55;6.03;;;5.63;;
25917;SDS011;13899;51.174;4.456;2022-08-19T14:20:21;4.78;;;4.13;;
25917;SDS011;13899;51.174;4.456;2022-08-19T14:22:49;5.03;;;4.25;;
25917;SDS011;13899;51.174;4.456;2022-08-19T14:25:16;4.07;;;2.40;;
25917;SDS011;13899;51.174;4.456;2022-08-19T14:27:47;4.35;;;1.90;;
25917;SDS011;13899;51.174;4.456;2022-08-19T14:30:20;3.25;;;1.50;;
25917;SDS011;13899;51.174;4.456;2022-08-19T14:33:00;4.57;;;2.08;;
25917;SDS011;13899;51.174;4.456;2022-08-19T14:35:47;2.15;;;1.60;;
25917;SDS011;13899;51.174;4.456;2022-08-19T14:38:59;2.30;;;1.60;;
25917;SDS011;13899;51.174;4.456;2022-08-19T14:42:08;3.70;;;2.13;;
25917;SDS011;13899;51.174;4.456;2022-08-19T14:44:35;1.95;;;1.70;;
25917;SDS011;13899;51.174;4.456;2022-08-19T14:47:01;1.63;;;1.52;;
25917;SDS011;13899;51.174;4.456;2022-08-19T14:49:28;1.58;;;1.48;;
25917;SDS011;13899;51.174;4.456;2022-08-19T14:51:54;2.28;;;1.35;;
25917;SDS011;13899;51.174;4.456;2022-08-19T14:54:23;2.55;;;1.10;;
25917;SDS011;13899;51.174;4.456;2022-08-19T14:56:49;2.20;;;0.50;;
25917;SDS011;13899;51.174;4.456;2022-08-19T14:59:15;3.43;;;0.70;;
25917;SDS011;13899;51.174;4.456;2022-08-19T15:01:41;2.03;;;0.60;;
25917;SDS011;13899;51.174;4.456;2022-08-19T15:04:07;3.90;;;0.67;;
25917;SDS011;13899;51.174;4.456;2022-08-19T15:06:32;3.60;;;0.60;;
25917;SDS011;13899;51.174;4.456;2022-08-19T15:08:58;2.33;;;0.70;;
25917;SDS011;13899;51.174;4.456;2022-08-19T15:11:26;1.45;;;0.50;;
25917;SDS011;13899;51.174;4.456;2022-08-19T15:13:53;2.45;;;0.95;;
25917;SDS011;13899;51.174;4.456;2022-08-19T15:16:20;4.00;;;1.10;;
25917;SDS011;13899;51.174;4.456;2022-08-19T15:18:48;2.10;;;1.15;;
25917;SDS011;13899;51.174;4.456;2022-08-19T15:21:16;2.28;;;1.20;;
25917;SDS011;13899;51.174;4.456;2022-08-19T15:23:42;2.97;;;1.13;;
25917;SDS011;13899;51.174;4.456;2022-08-19T15:26:09;5.20;;;1.38;;
25917;SDS011;13899;51.174;4.456;2022-08-19T15:28:35;1.42;;;1.17;;
25917;SDS011;13899;51.174;4.456;2022-08-19T15:31:02;2.30;;;0.95;;
25917;SDS011;13899;51.174;4.456;2022-08-19T15:33:30;1.88;;;1.00;;
25917;SDS011;13899;51.174;4.456;2022-08-19T15:35:57;2.22;;;1.25;;
25917;SDS011;13899;51.174;4.456;2022-08-19T15:38:23;2.67;;;1.20;;
25917;SDS011;13899;51.174;4.456;2022-08-19T15:40:51;2.03;;;1.10;;
25917;SDS011;13899;51.174;4.456;2022-08-19T15:43:17;3.92;;;0.73;;
25917;SDS011;13899;51.174;4.456;2022-08-19T15:45:45;1.88;;;0.70;;
25917;SDS011;13899;51.174;4.456;2022-08-19T15:48:11;1.83;;;0.53;;
25917;SDS011;13899;51.174;4.456;2022-08-19T15:50:36;1.17;;;0.57;;
25917;SDS011;13899;51.174;4.456;2022-08-19T15:53:05;1.75;;;0.65;;
25917;SDS011;13899;51.174;4.456;2022-08-19T15:55:33;1.83;;;0.57;;
25917;SDS011;13899;51.174;4.456;2022-08-19T15:58:10;1.65;;;0.70;;
25917;SDS011;13899;51.174;4.456;2022-08-19T16:00:57;1.42;;;0.80;;
25917;SDS011;13899;51.174;4.456;2022-08-19T16:03:42;3.20;;;1.50;;
25917;SDS011;13899;51.174;4.456;2022-08-19T16:06:26;3.35;;;1.50;;
25917;SDS011;13899;51.174;4.456;2022-08-19T16:08:57;2.78;;;2.15;;
25917;SDS011;13899;51.174;4.456;2022-08-19T16:11:26;2.40;;;2.08;;
25917;SDS011;13899;51.174;4.456;2022-08-19T16:13:54;3.25;;;2.88;;
25917;SDS011;13899;51.174;4.456;2022-08-19T16:16:25;3.90;;;3.53;;
25917;SDS011;13899;51.174;4.456;2022-08-19T16:18:54;5.38;;;3.00;;
25917;SDS011;13899;51.174;4.456;2022-08-19T16:21:21;4.28;;;3.65;;
25917;SDS011;13899;51.174;4.456;2022-08-19T16:23:50;5.05;;;3.88;;
25917;SDS011;13899;51.174;4.456;2022-08-19T16:26:16;5.30;;;4.80;;
25917;SDS011;13899;51.174;4.456;2022-08-19T16:28:43;6.50;;;4.82;;
25917;SDS011;13899;51.174;4.456;2022-08-19T16:31:11;5.70;;;4.60;;
25917;SDS011;13899;51.174;4.456;2022-08-19T16:33:37;5.45;;;5.05;;
25917;SDS011;13899;51.174;4.456;2022-08-19T16:36:03;5.30;;;4.07;;
25917;SDS011;13899;51.174;4.456;2022-08-19T16:38:30;4.85;;;4.45;;
25917;SDS011;13899;51.174;4.456;2022-08-19T16:43:24;4.80;;;4.50;;
25917;SDS011;13899;51.174;4.456;2022-08-19T16:45:52;5.13;;;4.70;;
25917;SDS011;13899;51.174;4.456;2022-08-19T16:48:19;5.38;;;4.97;;
25917;SDS011;13899;51.174;4.456;2022-08-19T16:50:46;7.10;;;5.47;;
25917;SDS011;13899;51.174;4.456;2022-08-19T16:53:20;6.85;;;6.03;;
25917;SDS011;13899;51.174;4.456;2022-08-19T16:55:48;7.50;;;6.35;;
25917;SDS011;13899;51.174;4.456;2022-08-19T16:58:19;7.70;;;7.00;;
25917;SDS011;13899;51.174;4.456;2022-08-19T17:00:46;7.35;;;6.75;;
25917;SDS011;13899;51.174;4.456;2022-08-19T17:03:14;7.47;;;6.47;;
25917;SDS011;13899;51.174;4.456;2022-08-19T17:05:45;8.60;;;7.90;;
25917;SDS011;13899;51.174;4.456;2022-08-19T17:08:12;6.82;;;6.22;;
25917;SDS011;13899;51.174;4.456;2022-08-19T17:10:41;7.47;;;6.97;;
25917;SDS011;13899;51.174;4.456;2022-08-19T17:13:07;7.88;;;7.18;;
25917;SDS011;13899;51.174;4.456;2022-08-19T17:15:33;7.73;;;7.03;;
25917;SDS011;13899;51.174;4.456;2022-08-19T17:18:03;7.30;;;6.70;;
25917;SDS011;13899;51.174;4.456;2022-08-19T17:20:30;8.13;;;7.53;;